createdAt,value
2019-05-01T00:04:25.792Z,101139.27
2019-05-01T00:09:32.180Z,101136.77
2019-05-01T00:14:37.644Z,101129.41
2019-05-01T00:19:43.112Z,101119.52
2019-05-01T00:24:48.140Z,101112.83
2019-05-01T00:29:53.716Z,101094.05
2019-05-01T00:34:58.876Z,101090.58
2019-05-01T00:40:06.584Z,101091.46
2019-05-01T00:45:11.923Z,101090.80
2019-05-01T00:50:17.612Z,101086.84
2019-05-01T00:55:39.564Z,101085.40
2019-05-01T01:00:46.546Z,101081.17
2019-05-01T01:05:53.041Z,101081.17
2019-05-01T01:10:58.399Z,101070.53
2019-05-01T01:16:03.869Z,101068.20
2019-05-01T01:21:09.255Z,101060.39
2019-05-01T01:26:14.733Z,101058.45
2019-05-01T01:31:20.820Z,101060.56
2019-05-01T01:36:26.334Z,101053.00
2019-05-01T01:41:32.195Z,101042.58
2019-05-01T01:46:42.312Z,101033.87
2019-05-01T01:51:48.022Z,101027.30
2019-05-01T01:56:53.490Z,101025.81
2019-05-01T02:02:00.899Z,101018.80
2019-05-01T02:07:06.290Z,101010.74
2019-05-01T02:12:12.026Z,101003.20
2019-05-01T02:17:17.594Z,101002.42
2019-05-01T02:22:22.809Z,100991.18
2019-05-01T02:27:30.456Z,100981.73
2019-05-01T02:32:36.907Z,100985.87
2019-05-01T02:37:45.578Z,100969.17
2019-05-01T02:42:51.886Z,100961.16
2019-05-01T02:47:58.147Z,100950.86
2019-05-01T02:53:03.811Z,100944.98
2019-05-01T02:58:10.681Z,100945.07
2019-05-01T03:03:16.270Z,100938.39
2019-05-01T03:08:21.733Z,100933.06
2019-05-01T03:13:27.417Z,100929.19
2019-05-01T03:18:50.591Z,100931.83
2019-05-01T03:24:04.218Z,100923.73
2019-05-01T03:29:10.396Z,100919.16
2019-05-01T03:34:15.898Z,100925.98
2019-05-01T03:39:21.900Z,100914.19
2019-05-01T03:44:27.498Z,100911.06
2019-05-01T03:49:33.630Z,100907.09
2019-05-01T03:54:38.994Z,100912.09
2019-05-01T03:59:44.959Z,100912.13
2019-05-01T04:04:50.632Z,100906.76
2019-05-01T04:09:55.868Z,100912.63
2019-05-01T04:15:01.253Z,100915.42
2019-05-01T04:20:07.672Z,100919.28
2019-05-01T04:25:13.370Z,100915.45
2019-05-01T04:30:20.570Z,100914.07
2019-05-01T04:35:27.868Z,100902.97
2019-05-01T04:40:33.227Z,100899.94
2019-05-01T04:45:38.678Z,100899.89
2019-05-01T04:50:43.981Z,100893.73
2019-05-01T04:55:49.581Z,100896.00
2019-05-01T05:00:54.812Z,100889.56
2019-05-01T05:06:01.268Z,100887.25
2019-05-01T05:11:08.441Z,100872.83
2019-05-01T05:16:21.463Z,100877.78
2019-05-01T05:21:27.845Z,100877.04
2019-05-01T05:26:33.938Z,100872.14
2019-05-01T05:31:41.433Z,100884.63
2019-05-01T05:36:48.638Z,100869.08
2019-05-01T05:41:55.855Z,100871.06
2019-05-01T05:47:02.314Z,100869.64
2019-05-01T05:52:29.184Z,100866.34
2019-05-01T05:57:43.122Z,100865.67
2019-05-01T06:02:52.109Z,100859.70
2019-05-01T06:08:20.009Z,100864.37
2019-05-01T06:13:44.221Z,100854.55
2019-05-01T06:18:54.246Z,100849.98
2019-05-01T06:24:06.569Z,100854.23
2019-05-01T06:29:08.863Z,100849.97
2019-05-01T06:34:14.419Z,100851.29
2019-05-01T06:39:19.878Z,100849.23
2019-05-01T06:44:27.714Z,100843.66
2019-05-01T06:49:52.806Z,100847.37
2019-05-01T06:54:59.297Z,100845.62
2019-05-01T07:00:09.465Z,100848.61
2019-05-01T07:05:16.505Z,100834.60
2019-05-01T07:10:30.608Z,100834.36
2019-05-01T07:15:29.649Z,100831.89
2019-05-01T07:20:53.195Z,100828.61
2019-05-01T07:26:00.145Z,100832.63
2019-05-01T07:31:06.195Z,100829.89
2019-05-01T07:36:15.169Z,100829.50
2019-05-01T07:41:20.593Z,100828.71
2019-05-01T07:46:28.039Z,100828.71
2019-05-01T07:51:37.785Z,100823.73
2019-05-01T07:56:40.908Z,100823.34
2019-05-01T08:01:49.815Z,100813.28
2019-05-01T08:06:56.982Z,100814.55
2019-05-01T08:12:01.890Z,100815.98
2019-05-01T08:17:07.292Z,100815.26
2019-05-01T08:22:14.441Z,100821.64
2019-05-01T08:27:25.334Z,100812.72
2019-05-01T08:32:44.310Z,100813.73
2019-05-01T08:37:49.513Z,100810.78
2019-05-01T08:42:54.754Z,100805.08
2019-05-01T08:48:10.709Z,100803.71
2019-05-01T08:53:18.129Z,100789.63
2019-05-01T08:58:23.597Z,100787.64
2019-05-01T09:03:28.795Z,100783.77
2019-05-01T09:08:34.013Z,100783.00
2019-05-01T09:13:39.234Z,100780.73
2019-05-01T09:18:44.729Z,100771.08
2019-05-01T09:23:51.555Z,100771.12
2019-05-01T09:28:58.539Z,100773.48
2019-05-01T09:34:05.303Z,100765.20
2019-05-01T09:39:12.187Z,100755.34
2019-05-01T09:44:17.405Z,100754.84
2019-05-01T09:49:22.618Z,100751.52
2019-05-01T09:54:43.087Z,100740.66
2019-05-01T09:59:45.810Z,100738.51
2019-05-01T10:04:50.990Z,100724.26
2019-05-01T10:09:56.444Z,100719.63
2019-05-01T10:15:01.668Z,100724.72
2019-05-01T10:20:08.179Z,100718.95
2019-05-01T10:25:13.699Z,100713.44
2019-05-01T10:30:20.753Z,100705.48
2019-05-01T10:35:41.886Z,100696.79
2019-05-01T10:40:37.507Z,100695.96
2019-05-01T10:45:42.948Z,100692.89
2019-05-01T10:50:48.144Z,100680.63
2019-05-01T10:55:53.817Z,100678.02
2019-05-01T11:01:00.761Z,100674.09
2019-05-01T11:06:07.150Z,100666.67
2019-05-01T11:11:12.351Z,100667.46
2019-05-01T11:16:17.874Z,100654.68
2019-05-01T11:21:23.244Z,100660.03
2019-05-01T11:26:30.031Z,100652.08
2019-05-01T11:31:40.028Z,100645.89
2019-05-01T11:37:02.942Z,100645.12
2019-05-01T11:42:10.961Z,100647.80
2019-05-01T11:47:16.063Z,100643.80
2019-05-01T11:52:21.455Z,100642.92
2019-05-01T11:57:26.733Z,100634.57
2019-05-01T12:02:32.012Z,100626.69
2019-05-01T12:07:37.204Z,100621.86
2019-05-01T12:12:42.523Z,100623.61
2019-05-01T12:17:48.876Z,100617.05
2019-05-01T12:22:54.135Z,100610.94
2019-05-01T12:27:59.625Z,100603.52
2019-05-01T12:33:05.200Z,100598.67
2019-05-01T12:38:10.494Z,100591.22
2019-05-01T12:43:16.297Z,100584.17
2019-05-01T12:48:21.811Z,100571.48
2019-05-01T12:53:28.846Z,100570.02
2019-05-01T12:58:34.532Z,100561.73
2019-05-01T13:03:39.906Z,100549.03
2019-05-01T13:08:45.114Z,100545.13
2019-05-01T13:13:50.595Z,100539.41
2019-05-01T13:18:55.731Z,100537.67
2019-05-01T13:24:01.164Z,100525.95
2019-05-01T13:29:13.999Z,100536.00
2019-05-01T13:34:19.336Z,100509.73
2019-05-01T13:39:24.701Z,100502.13
2019-05-01T13:44:30.046Z,100484.16
2019-05-01T13:49:35.291Z,100480.95
2019-05-01T13:54:40.866Z,100475.85
2019-05-01T13:59:47.211Z,100457.47
2019-05-01T14:04:52.712Z,100463.78
2019-05-01T14:09:57.915Z,100464.87
2019-05-01T14:15:03.151Z,100462.57
2019-05-01T14:20:26.924Z,100467.25
2019-05-01T14:25:46.016Z,100459.55
2019-05-01T14:30:51.184Z,100457.77
2019-05-01T14:35:56.612Z,100467.19
2019-05-01T14:41:02.207Z,100472.53
2019-05-01T14:46:07.788Z,100471.52
2019-05-01T14:51:13.330Z,100475.42
2019-05-01T14:56:18.782Z,100474.60
2019-05-01T15:01:24.287Z,100469.30
2019-05-01T15:06:29.786Z,100466.32
2019-05-01T15:11:35.250Z,100475.48
2019-05-01T15:16:42.076Z,100464.37
2019-05-01T15:21:47.406Z,100464.91
2019-05-01T15:26:52.606Z,100455.57
2019-05-01T15:31:58.070Z,100446.97
2019-05-01T15:37:03.437Z,100460.95
2019-05-01T15:42:10.320Z,100462.55
2019-05-01T15:47:15.661Z,100471.97
2019-05-01T15:52:21.076Z,100477.33
2019-05-01T15:57:26.453Z,100469.59
2019-05-01T16:02:31.777Z,100451.78
2019-05-01T16:07:37.025Z,100454.87
2019-05-01T16:12:46.727Z,100462.30
2019-05-01T16:17:51.981Z,100442.88
2019-05-01T16:22:57.439Z,100435.64
2019-05-01T16:28:03.023Z,100429.34
2019-05-01T16:33:08.294Z,100434.40
2019-05-01T16:38:22.770Z,100423.19
2019-05-01T16:43:22.187Z,100427.85
2019-05-01T16:48:27.669Z,100424.77
2019-05-01T16:53:33.182Z,100410.47
2019-05-01T16:58:38.975Z,100408.33
2019-05-01T17:04:01.389Z,100404.69
2019-05-01T17:09:32.205Z,100398.47
2019-05-01T17:14:37.979Z,100400.17
2019-05-01T17:19:43.394Z,100388.86
2019-05-01T17:24:48.857Z,100376.25
2019-05-01T17:29:55.429Z,100359.70
2019-05-01T17:35:01.889Z,100346.71
2019-05-01T17:40:07.892Z,100342.44
2019-05-01T17:45:13.279Z,100329.84
2019-05-01T17:50:21.010Z,100330.19
2019-05-01T17:55:25.739Z,100320.33
2019-05-01T18:00:38.781Z,100318.50
2019-05-01T18:06:01.441Z,100314.63
2019-05-01T18:11:05.194Z,100316.36
2019-05-01T18:16:10.791Z,100313.33
2019-05-01T18:21:16.579Z,100304.59
2019-05-01T18:26:29.858Z,100307.56
2019-05-01T18:31:35.516Z,100305.37
2019-05-01T18:36:59.787Z,100300.63
2019-05-01T18:42:10.179Z,100296.17
2019-05-01T18:47:15.829Z,100276.20
2019-05-01T18:52:21.385Z,100261.00
2019-05-01T18:57:26.874Z,100259.75
2019-05-01T19:02:32.620Z,100250.08
2019-05-01T19:07:37.878Z,100246.11
2019-05-01T19:12:43.281Z,100242.48
2019-05-01T19:17:48.898Z,100232.03
2019-05-01T19:22:54.120Z,100230.30
2019-05-01T19:27:59.453Z,100219.27
2019-05-01T19:33:05.781Z,100219.36
2019-05-01T19:38:11.761Z,100210.23
2019-05-01T19:43:17.214Z,100205.83
2019-05-01T19:48:22.597Z,100197.04
2019-05-01T19:53:29.051Z,100177.80
2019-05-01T19:58:34.663Z,100169.64
2019-05-01T20:03:40.105Z,100167.07
2019-05-01T20:08:45.650Z,100157.46
2019-05-01T20:13:51.318Z,100152.39
2019-05-01T20:18:56.898Z,100154.48
2019-05-01T20:24:04.362Z,100139.29
2019-05-01T20:29:09.197Z,100134.95
2019-05-01T20:34:17.351Z,100122.56
2019-05-01T20:39:23.807Z,100118.70
2019-05-01T20:44:28.814Z,100112.12
2019-05-01T20:49:36.440Z,100112.12
2019-05-01T20:54:41.093Z,100107.73
2019-05-01T20:59:48.238Z,100105.53
2019-05-01T21:04:55.055Z,100092.42
2019-05-01T21:10:02.262Z,100086.05
2019-05-01T21:15:08.228Z,100076.44
2019-05-01T21:20:13.947Z,100064.63
2019-05-01T21:25:19.257Z,100061.04
2019-05-01T21:30:24.524Z,100045.05
2019-05-01T21:35:29.782Z,100044.92
2019-05-01T21:40:40.801Z,100045.80
2019-05-01T21:45:43.393Z,100029.20
2019-05-01T21:50:49.027Z,100031.39
2019-05-01T21:55:54.451Z,100026.64
2019-05-01T22:01:01.156Z,100018.34
2019-05-01T22:06:11.301Z,100015.68
2019-05-01T22:11:14.108Z,100009.20
2019-05-01T22:16:28.193Z,99997.91
2019-05-01T22:21:44.585Z,100004.11
2019-05-01T22:26:54.642Z,99997.91
2019-05-01T22:32:13.739Z,99994.84
2019-05-01T22:37:19.228Z,99986.91
2019-05-01T22:42:24.619Z,99978.24
2019-05-01T22:47:30.525Z,99970.41
2019-05-01T22:52:37.290Z,99962.53
2019-05-01T22:57:42.572Z,99946.83
2019-05-01T23:02:47.992Z,99957.74
2019-05-01T23:07:53.384Z,99953.73
2019-05-01T23:12:59.037Z,99951.11
2019-05-01T23:18:04.863Z,99951.58
2019-05-01T23:23:10.528Z,99928.03
2019-05-01T23:28:16.190Z,99924.97
2019-05-01T23:33:23.289Z,99914.48
2019-05-01T23:38:29.095Z,99916.20
2019-05-01T23:43:35.208Z,99903.94
2019-05-01T23:48:40.523Z,99899.66
2019-05-01T23:53:48.294Z,99894.45
2019-05-01T23:58:52.955Z,99897.89
